Ayr, North Dakota
Current Conditions -  °F | °C
As of 10:15 AM on Sunday 23 Nov 2014 (Local Time) from KBAC Reporting Station
Overcast Overcast  
Wind Chill:   Ceiling: 5000
Heat Index:   Visibility: 10mi
Dew Point:   Wind: 13mph
Humidity: 93%   Direction: 270°W
Pressure: 29.43"   Gusts: 17mph
Location:  47.04°N, 97.49°W
Report Text: KBAC 231615Z AUTO 27011G15KT 10SM OVC050 04/03 A2943 RMK AO2
Loading
Personal Weather Stations






























Interactive Weather Map New forecast layout! Learn more

10-Day Weather Forecast

Advertisements
Track Severe Weather on mobile